sensor_id;sensor_type;location;lat;lon;timestamp;P1;durP1;ratioP1;P2;durP2;ratioP2
23322;SDS011;11833;52.554;13.554;2023-11-21T01:00:40;23.42;;;11.80;;
23322;SDS011;11833;52.554;13.554;2023-11-21T01:03:06;18.55;;;10.68;;
23322;SDS011;11833;52.554;13.554;2023-11-21T01:05:33;22.38;;;12.40;;
23322;SDS011;11833;52.554;13.554;2023-11-21T01:07:59;22.58;;;12.50;;
23322;SDS011;11833;52.554;13.554;2023-11-21T01:10:25;21.98;;;11.73;;
23322;SDS011;11833;52.554;13.554;2023-11-21T01:12:50;20.98;;;11.20;;
23322;SDS011;11833;52.554;13.554;2023-11-21T01:15:16;20.88;;;11.93;;
23322;SDS011;11833;52.554;13.554;2023-11-21T01:17:42;21.92;;;10.68;;
23322;SDS011;11833;52.554;13.554;2023-11-21T01:20:08;27.05;;;13.80;;
23322;SDS011;11833;52.554;13.554;2023-11-21T01:22:37;24.08;;;12.27;;
23322;SDS011;11833;52.554;13.554;2023-11-21T01:25:04;23.70;;;12.90;;
23322;SDS011;11833;52.554;13.554;2023-11-21T01:27:32;26.23;;;12.82;;
23322;SDS011;11833;52.554;13.554;2023-11-21T01:30:04;25.63;;;12.73;;
23322;SDS011;11833;52.554;13.554;2023-11-21T01:32:32;24.60;;;13.23;;
23322;SDS011;11833;52.554;13.554;2023-11-21T01:34:59;28.60;;;14.20;;
23322;SDS011;11833;52.554;13.554;2023-11-21T01:37:25;28.65;;;13.20;;
23322;SDS011;11833;52.554;13.554;2023-11-21T01:39:53;29.35;;;14.63;;
23322;SDS011;11833;52.554;13.554;2023-11-21T01:42:22;37.08;;;16.23;;
23322;SDS011;11833;52.554;13.554;2023-11-21T01:44:48;38.53;;;16.67;;
23322;SDS011;11833;52.554;13.554;2023-11-21T01:47:14;34.50;;;16.52;;
23322;SDS011;11833;52.554;13.554;2023-11-21T01:49:43;34.33;;;16.00;;
23322;SDS011;11833;52.554;13.554;2023-11-21T01:52:10;28.73;;;15.82;;
23322;SDS011;11833;52.554;13.554;2023-11-21T01:54:37;33.22;;;15.23;;
23322;SDS011;11833;52.554;13.554;2023-11-21T01:57:03;30.40;;;15.20;;
23322;SDS011;11833;52.554;13.554;2023-11-21T01:59:35;33.75;;;15.38;;
23322;SDS011;11833;52.554;13.554;2023-11-21T02:02:05;35.22;;;15.48;;
23322;SDS011;11833;52.554;13.554;2023-11-21T02:04:32;36.53;;;15.52;;
23322;SDS011;11833;52.554;13.554;2023-11-21T02:06:59;39.03;;;16.80;;
23322;SDS011;11833;52.554;13.554;2023-11-21T02:09:26;30.58;;;15.02;;
23322;SDS011;11833;52.554;13.554;2023-11-21T02:11:53;31.90;;;15.70;;
23322;SDS011;11833;52.554;13.554;2023-11-21T02:14:20;32.55;;;14.48;;
23322;SDS011;11833;52.554;13.554;2023-11-21T02:16:47;43.25;;;15.68;;
23322;SDS011;11833;52.554;13.554;2023-11-21T02:19:20;31.98;;;15.00;;
23322;SDS011;11833;52.554;13.554;2023-11-21T02:21:54;22.15;;;11.52;;
23322;SDS011;11833;52.554;13.554;2023-11-21T02:24:31;25.20;;;11.80;;
23322;SDS011;11833;52.554;13.554;2023-11-21T02:26:57;23.27;;;10.80;;
23322;SDS011;11833;52.554;13.554;2023-11-21T02:29:23;19.60;;;9.60;;
23322;SDS011;11833;52.554;13.554;2023-11-21T02:31:53;18.70;;;10.18;;
23322;SDS011;11833;52.554;13.554;2023-11-21T02:34:20;14.77;;;8.43;;
23322;SDS011;11833;52.554;13.554;2023-11-21T02:36:47;17.98;;;8.45;;
23322;SDS011;11833;52.554;13.554;2023-11-21T02:39:17;12.88;;;7.32;;
23322;SDS011;11833;52.554;13.554;2023-11-21T02:41:43;12.55;;;7.07;;
23322;SDS011;11833;52.554;13.554;2023-11-21T02:44:09;12.68;;;7.15;;
23322;SDS011;11833;52.554;13.554;2023-11-21T02:46:36;12.77;;;6.97;;
23322;SDS011;11833;52.554;13.554;2023-11-21T02:49:05;14.50;;;7.15;;
23322;SDS011;11833;52.554;13.554;2023-11-21T02:51:31;10.80;;;6.82;;
23322;SDS011;11833;52.554;13.554;2023-11-21T02:53:58;9.32;;;6.22;;
23322;SDS011;11833;52.554;13.554;2023-11-21T02:56:25;10.93;;;6.97;;
23322;SDS011;11833;52.554;13.554;2023-11-21T02:58:51;11.65;;;6.55;;
23322;SDS011;11833;52.554;13.554;2023-11-21T03:01:20;9.13;;;6.25;;
23322;SDS011;11833;52.554;13.554;2023-11-21T03:03:46;9.18;;;5.80;;
23322;SDS011;11833;52.554;13.554;2023-11-21T03:06:16;9.30;;;6.15;;
23322;SDS011;11833;52.554;13.554;2023-11-21T03:08:45;10.52;;;5.85;;
23322;SDS011;11833;52.554;13.554;2023-11-21T03:11:11;11.35;;;6.22;;
23322;SDS011;11833;52.554;13.554;2023-11-21T03:13:40;9.23;;;5.70;;
23322;SDS011;11833;52.554;13.554;2023-11-21T03:16:10;7.45;;;5.25;;
23322;SDS011;11833;52.554;13.554;2023-11-21T03:18:37;10.38;;;5.93;;
23322;SDS011;11833;52.554;13.554;2023-11-21T03:21:06;8.27;;;5.38;;
23322;SDS011;11833;52.554;13.554;2023-11-21T03:23:36;6.88;;;5.32;;
23322;SDS011;11833;52.554;13.554;2023-11-21T03:26:02;8.00;;;5.70;;
23322;SDS011;11833;52.554;13.554;2023-11-21T03:28:28;7.80;;;5.18;;
23322;SDS011;11833;52.554;13.554;2023-11-21T03:30:55;8.80;;;5.55;;
23322;SDS011;11833;52.554;13.554;2023-11-21T03:33:21;7.20;;;5.30;;
23322;SDS011;11833;52.554;13.554;2023-11-21T03:35:47;9.55;;;5.45;;
23322;SDS011;11833;52.554;13.554;2023-11-21T03:38:14;8.80;;;6.05;;
23322;SDS011;11833;52.554;13.554;2023-11-21T03:40:41;7.70;;;5.47;;
23322;SDS011;11833;52.554;13.554;2023-11-21T03:43:07;7.13;;;5.13;;
23322;SDS011;11833;52.554;13.554;2023-11-21T03:45:33;6.82;;;5.22;;
23322;SDS011;11833;52.554;13.554;2023-11-21T03:47:59;7.60;;;5.75;;
23322;SDS011;11833;52.554;13.554;2023-11-21T03:50:26;5.50;;;4.55;;
23322;SDS011;11833;52.554;13.554;2023-11-21T03:52:55;6.30;;;3.88;;
23322;SDS011;11833;52.554;13.554;2023-11-21T03:55:21;6.78;;;4.95;;
23322;SDS011;11833;52.554;13.554;2023-11-21T03:57:48;5.93;;;4.60;;
23322;SDS011;11833;52.554;13.554;2023-11-21T04:00:14;7.65;;;5.07;;
23322;SDS011;11833;52.554;13.554;2023-11-21T04:02:41;6.75;;;4.75;;
23322;SDS011;11833;52.554;13.554;2023-11-21T04:05:06;7.20;;;5.07;;
23322;SDS011;11833;52.554;13.554;2023-11-21T04:07:32;8.73;;;4.80;;
23322;SDS011;11833;52.554;13.554;2023-11-21T04:09:59;9.32;;;5.05;;
23322;SDS011;11833;52.554;13.554;2023-11-21T04:12:24;7.75;;;4.18;;
23322;SDS011;11833;52.554;13.554;2023-11-21T04:14:50;5.93;;;4.18;;
23322;SDS011;11833;52.554;13.554;2023-11-21T04:17:19;5.65;;;4.20;;
23322;SDS011;11833;52.554;13.554;2023-11-21T04:19:45;4.50;;;4.03;;
23322;SDS011;11833;52.554;13.554;2023-11-21T04:22:11;5.80;;;3.90;;
23322;SDS011;11833;52.554;13.554;2023-11-21T04:24:37;4.70;;;4.20;;
23322;SDS011;11833;52.554;13.554;2023-11-21T04:27:03;8.05;;;4.30;;
23322;SDS011;11833;52.554;13.554;2023-11-21T04:29:29;7.35;;;4.40;;
23322;SDS011;11833;52.554;13.554;2023-11-21T04:31:55;6.68;;;3.67;;
23322;SDS011;11833;52.554;13.554;2023-11-21T04:34:20;4.80;;;3.67;;
23322;SDS011;11833;52.554;13.554;2023-11-21T04:36:46;4.15;;;3.30;;
23322;SDS011;11833;52.554;13.554;2023-11-21T04:39:12;4.85;;;3.78;;
23322;SDS011;11833;52.554;13.554;2023-11-21T04:41:38;4.88;;;3.40;;
23322;SDS011;11833;52.554;13.554;2023-11-21T04:44:07;3.80;;;3.35;;
23322;SDS011;11833;52.554;13.554;2023-11-21T04:46:33;5.65;;;3.28;;
23322;SDS011;11833;52.554;13.554;2023-11-21T04:48:59;4.18;;;3.30;;
23322;SDS011;11833;52.554;13.554;2023-11-21T04:51:25;5.80;;;3.70;;
23322;SDS011;11833;52.554;13.554;2023-11-21T04:53:50;4.38;;;3.55;;
23322;SDS011;11833;52.554;13.554;2023-11-21T04:56:16;4.65;;;3.63;;
23322;SDS011;11833;52.554;13.554;2023-11-21T04:58:42;5.50;;;3.50;;
23322;SDS011;11833;52.554;13.554;2023-11-21T05:01:08;9.00;;;3.92;;
23322;SDS011;11833;52.554;13.554;2023-11-21T05:03:33;4.88;;;3.90;;
23322;SDS011;11833;52.554;13.554;2023-11-21T05:06:00;4.90;;;3.88;;
23322;SDS011;11833;52.554;13.554;2023-11-21T05:08:25;5.32;;;3.83;;
23322;SDS011;11833;52.554;13.554;2023-11-21T05:10:52;4.90;;;4.03;;
23322;SDS011;11833;52.554;13.554;2023-11-21T05:13:18;5.63;;;3.85;;
23322;SDS011;11833;52.554;13.554;2023-11-21T05:15:45;4.93;;;4.00;;
23322;SDS011;11833;52.554;13.554;2023-11-21T05:18:11;6.22;;;2.55;;
23322;SDS011;11833;52.554;13.554;2023-11-21T05:20:38;6.32;;;4.28;;
23322;SDS011;11833;52.554;13.554;2023-11-21T05:23:05;5.45;;;3.95;;
23322;SDS011;11833;52.554;13.554;2023-11-21T05:25:32;6.15;;;3.65;;
23322;SDS011;11833;52.554;13.554;2023-11-21T05:27:59;5.53;;;3.33;;
23322;SDS011;11833;52.554;13.554;2023-11-21T05:30:26;4.88;;;3.60;;
23322;SDS011;11833;52.554;13.554;2023-11-21T05:32:53;4.63;;;3.55;;
23322;SDS011;11833;52.554;13.554;2023-11-21T05:35:18;4.07;;;3.03;;
23322;SDS011;11833;52.554;13.554;2023-11-21T05:37:44;5.97;;;3.80;;
23322;SDS011;11833;52.554;13.554;2023-11-21T05:40:11;5.25;;;3.78;;
23322;SDS011;11833;52.554;13.554;2023-11-21T05:42:38;6.32;;;3.80;;
23322;SDS011;11833;52.554;13.554;2023-11-21T05:45:05;6.25;;;3.92;;
23322;SDS011;11833;52.554;13.554;2023-11-21T05:47:42;4.70;;;4.03;;
23322;SDS011;11833;52.554;13.554;2023-11-21T05:50:11;3.80;;;3.42;;
23322;SDS011;11833;52.554;13.554;2023-11-21T05:52:45;5.70;;;3.78;;
23322;SDS011;11833;52.554;13.554;2023-11-21T05:55:12;5.78;;;3.90;;
23322;SDS011;11833;52.554;13.554;2023-11-21T05:57:38;6.20;;;3.50;;
23322;SDS011;11833;52.554;13.554;2023-11-21T06:00:05;5.90;;;4.05;;
23322;SDS011;11833;52.554;13.554;2023-11-21T06:02:50;4.57;;;4.13;;
23322;SDS011;11833;52.554;13.554;2023-11-21T06:05:18;4.28;;;3.38;;
23322;SDS011;11833;52.554;13.554;2023-11-21T06:07:48;4.82;;;4.00;;
23322;SDS011;11833;52.554;13.554;2023-11-21T06:10:14;4.78;;;2.97;;
23322;SDS011;11833;52.554;13.554;2023-11-21T06:12:42;4.35;;;3.58;;
23322;SDS011;11833;52.554;13.554;2023-11-21T06:15:09;3.65;;;3.25;;
23322;SDS011;11833;52.554;13.554;2023-11-21T06:17:38;4.25;;;3.47;;
23322;SDS011;11833;52.554;13.554;2023-11-21T06:20:05;4.07;;;3.50;;
23322;SDS011;11833;52.554;13.554;2023-11-21T06:22:40;3.55;;;3.25;;
23322;SDS011;11833;52.554;13.554;2023-11-21T06:25:09;5.47;;;3.67;;
23322;SDS011;11833;52.554;13.554;2023-11-21T06:27:38;5.03;;;3.63;;
23322;SDS011;11833;52.554;13.554;2023-11-21T06:30:06;5.10;;;3.60;;
23322;SDS011;11833;52.554;13.554;2023-11-21T06:32:34;5.03;;;3.50;;
23322;SDS011;11833;52.554;13.554;2023-11-21T06:35:01;8.13;;;4.13;;
23322;SDS011;11833;52.554;13.554;2023-11-21T06:37:29;4.03;;;3.50;;
23322;SDS011;11833;52.554;13.554;2023-11-21T06:39:56;4.88;;;3.35;;
23322;SDS011;11833;52.554;13.554;2023-11-21T06:42:23;5.15;;;3.75;;
23322;SDS011;11833;52.554;13.554;2023-11-21T06:44:50;6.63;;;3.88;;
23322;SDS011;11833;52.554;13.554;2023-11-21T06:47:22;4.22;;;3.78;;
23322;SDS011;11833;52.554;13.554;2023-11-21T06:49:51;7.03;;;4.70;;
23322;SDS011;11833;52.554;13.554;2023-11-21T06:52:18;4.95;;;3.60;;
23322;SDS011;11833;52.554;13.554;2023-11-21T06:54:44;3.70;;;3.22;;
23322;SDS011;11833;52.554;13.554;2023-11-21T06:57:12;4.72;;;3.67;;
23322;SDS011;11833;52.554;13.554;2023-11-21T06:59:38;5.22;;;3.60;;
23322;SDS011;11833;52.554;13.554;2023-11-21T07:02:04;5.20;;;3.78;;
23322;SDS011;11833;52.554;13.554;2023-11-21T07:04:33;4.45;;;3.38;;
23322;SDS011;11833;52.554;13.554;2023-11-21T07:06:59;5.55;;;4.40;;
23322;SDS011;11833;52.554;13.554;2023-11-21T07:09:28;4.13;;;3.10;;
23322;SDS011;11833;52.554;13.554;2023-11-21T07:11:55;4.75;;;3.55;;
23322;SDS011;11833;52.554;13.554;2023-11-21T07:14:21;4.10;;;2.92;;
23322;SDS011;11833;52.554;13.554;2023-11-21T07:16:47;5.50;;;3.20;;
23322;SDS011;11833;52.554;13.554;2023-11-21T07:19:13;4.38;;;2.95;;
23322;SDS011;11833;52.554;13.554;2023-11-21T07:21:39;5.03;;;3.13;;
23322;SDS011;11833;52.554;13.554;2023-11-21T07:24:06;3.65;;;2.95;;
23322;SDS011;11833;52.554;13.554;2023-11-21T07:26:33;3.60;;;2.78;;
23322;SDS011;11833;52.554;13.554;2023-11-21T07:29:03;3.33;;;2.67;;
23322;SDS011;11833;52.554;13.554;2023-11-21T07:31:29;4.18;;;2.78;;
23322;SDS011;11833;52.554;13.554;2023-11-21T07:33:55;4.68;;;3.25;;
23322;SDS011;11833;52.554;13.554;2023-11-21T07:36:24;4.15;;;3.10;;
23322;SDS011;11833;52.554;13.554;2023-11-21T07:38:50;4.93;;;3.10;;
23322;SDS011;11833;52.554;13.554;2023-11-21T07:41:16;7.10;;;3.42;;
23322;SDS011;11833;52.554;13.554;2023-11-21T07:43:43;5.53;;;3.63;;
23322;SDS011;11833;52.554;13.554;2023-11-21T07:46:10;6.93;;;3.65;;
23322;SDS011;11833;52.554;13.554;2023-11-21T07:48:37;5.65;;;3.88;;
23322;SDS011;11833;52.554;13.554;2023-11-21T07:51:07;8.73;;;4.82;;
23322;SDS011;11833;52.554;13.554;2023-11-21T07:53:33;5.75;;;4.13;;
23322;SDS011;11833;52.554;13.554;2023-11-21T07:56:04;11.23;;;4.82;;
23322;SDS011;11833;52.554;13.554;2023-11-21T07:58:32;10.95;;;5.53;;
23322;SDS011;11833;52.554;13.554;2023-11-21T08:00:59;7.35;;;4.22;;
23322;SDS011;11833;52.554;13.554;2023-11-21T08:03:25;10.55;;;4.90;;
23322;SDS011;11833;52.554;13.554;2023-11-21T08:05:57;12.52;;;6.15;;
23322;SDS011;11833;52.554;13.554;2023-11-21T08:08:24;11.93;;;5.85;;
23322;SDS011;11833;52.554;13.554;2023-11-21T08:10:50;15.18;;;6.07;;
23322;SDS011;11833;52.554;13.554;2023-11-21T08:13:25;14.40;;;6.75;;
23322;SDS011;11833;52.554;13.554;2023-11-21T08:15:56;14.90;;;6.80;;
23322;SDS011;11833;52.554;13.554;2023-11-21T08:18:28;9.75;;;4.72;;
23322;SDS011;11833;52.554;13.554;2023-11-21T08:20:54;16.05;;;6.68;;
23322;SDS011;11833;52.554;13.554;2023-11-21T08:23:21;15.43;;;6.47;;
23322;SDS011;11833;52.554;13.554;2023-11-21T08:25:50;17.27;;;7.55;;
23322;SDS011;11833;52.554;13.554;2023-11-21T08:28:17;16.23;;;5.32;;
23322;SDS011;11833;52.554;13.554;2023-11-21T08:30:43;15.82;;;6.45;;
23322;SDS011;11833;52.554;13.554;2023-11-21T08:33:09;13.02;;;6.25;;
23322;SDS011;11833;52.554;13.554;2023-11-21T08:35:37;17.65;;;7.95;;
23322;SDS011;11833;52.554;13.554;2023-11-21T08:38:03;20.75;;;10.30;;
23322;SDS011;11833;52.554;13.554;2023-11-21T08:40:29;17.75;;;9.35;;
23322;SDS011;11833;52.554;13.554;2023-11-21T08:42:55;24.50;;;13.18;;
23322;SDS011;11833;52.554;13.554;2023-11-21T08:45:23;13.88;;;7.38;;
23322;SDS011;11833;52.554;13.554;2023-11-21T08:47:53;20.05;;;9.30;;
23322;SDS011;11833;52.554;13.554;2023-11-21T08:50:19;20.75;;;8.30;;
23322;SDS011;11833;52.554;13.554;2023-11-21T08:52:45;15.25;;;7.60;;
23322;SDS011;11833;52.554;13.554;2023-11-21T08:55:12;14.00;;;6.57;;
23322;SDS011;11833;52.554;13.554;2023-11-21T08:57:38;19.42;;;7.95;;
23322;SDS011;11833;52.554;13.554;2023-11-21T09:00:06;12.73;;;5.55;;
23322;SDS011;11833;52.554;13.554;2023-11-21T09:02:39;9.38;;;4.65;;
23322;SDS011;11833;52.554;13.554;2023-11-21T09:05:09;8.77;;;4.07;;
23322;SDS011;11833;52.554;13.554;2023-11-21T09:07:37;7.40;;;4.75;;
23322;SDS011;11833;52.554;13.554;2023-11-21T09:10:05;10.93;;;4.97;;
23322;SDS011;11833;52.554;13.554;2023-11-21T09:12:32;6.80;;;3.47;;
23322;SDS011;11833;52.554;13.554;2023-11-21T09:15:04;7.28;;;3.80;;
23322;SDS011;11833;52.554;13.554;2023-11-21T09:17:31;10.38;;;4.90;;
23322;SDS011;11833;52.554;13.554;2023-11-21T09:19:59;10.63;;;4.97;;
23322;SDS011;11833;52.554;13.554;2023-11-21T09:22:25;5.57;;;3.60;;
23322;SDS011;11833;52.554;13.554;2023-11-21T09:24:52;8.30;;;4.03;;
23322;SDS011;11833;52.554;13.554;2023-11-21T09:27:18;9.20;;;4.22;;
23322;SDS011;11833;52.554;13.554;2023-11-21T09:29:44;7.50;;;3.72;;
23322;SDS011;11833;52.554;13.554;2023-11-21T09:32:12;4.15;;;2.13;;
23322;SDS011;11833;52.554;13.554;2023-11-21T09:34:41;3.90;;;2.00;;
23322;SDS011;11833;52.554;13.554;2023-11-21T09:37:10;3.95;;;2.67;;
23322;SDS011;11833;52.554;13.554;2023-11-21T09:39:36;3.25;;;2.33;;
23322;SDS011;11833;52.554;13.554;2023-11-21T09:47:56;2.60;;;1.65;;
23322;SDS011;11833;52.554;13.554;2023-11-21T09:50:22;3.72;;;2.38;;
23322;SDS011;11833;52.554;13.554;2023-11-21T09:55:47;4.78;;;1.52;;
23322;SDS011;11833;52.554;13.554;2023-11-21T09:58:16;3.13;;;1.90;;
23322;SDS011;11833;52.554;13.554;2023-11-21T10:00:43;3.45;;;1.67;;
23322;SDS011;11833;52.554;13.554;2023-11-21T10:03:14;1.88;;;1.52;;
23322;SDS011;11833;52.554;13.554;2023-11-21T10:05:42;2.25;;;1.55;;
23322;SDS011;11833;52.554;13.554;2023-11-21T10:08:08;2.90;;;1.90;;
23322;SDS011;11833;52.554;13.554;2023-11-21T10:10:36;2.55;;;1.60;;
23322;SDS011;11833;52.554;13.554;2023-11-21T10:13:04;2.25;;;1.27;;
23322;SDS011;11833;52.554;13.554;2023-11-21T10:15:34;1.98;;;1.33;;
23322;SDS011;11833;52.554;13.554;2023-11-21T10:18:01;7.82;;;4.55;;
23322;SDS011;11833;52.554;13.554;2023-11-21T10:20:29;1.92;;;1.67;;
23322;SDS011;11833;52.554;13.554;2023-11-21T10:22:58;2.85;;;2.25;;
23322;SDS011;11833;52.554;13.554;2023-11-21T10:25:28;4.55;;;1.80;;
23322;SDS011;11833;52.554;13.554;2023-11-21T10:27:59;2.17;;;1.80;;
23322;SDS011;11833;52.554;13.554;2023-11-21T10:30:36;4.53;;;3.65;;
23322;SDS011;11833;52.554;13.554;2023-11-21T10:33:04;1.58;;;1.48;;
23322;SDS011;11833;52.554;13.554;2023-11-21T10:35:47;3.20;;;2.30;;
23322;SDS011;11833;52.554;13.554;2023-11-21T10:38:16;4.22;;;1.88;;
23322;SDS011;11833;52.554;13.554;2023-11-21T10:40:43;4.20;;;1.80;;
23322;SDS011;11833;52.554;13.554;2023-11-21T10:43:10;1.42;;;1.33;;
23322;SDS011;11833;52.554;13.554;2023-11-21T10:45:40;3.92;;;2.08;;
23322;SDS011;11833;52.554;13.554;2023-11-21T10:48:07;2.97;;;1.80;;
23322;SDS011;11833;52.554;13.554;2023-11-21T10:50:37;2.63;;;1.55;;
23322;SDS011;11833;52.554;13.554;2023-11-21T10:53:03;7.15;;;2.05;;
23322;SDS011;11833;52.554;13.554;2023-11-21T10:55:31;1.95;;;1.65;;
23322;SDS011;11833;52.554;13.554;2023-11-21T10:57:58;1.55;;;1.35;;
23322;SDS011;11833;52.554;13.554;2023-11-21T11:00:30;5.07;;;1.85;;
23322;SDS011;11833;52.554;13.554;2023-11-21T11:02:58;2.25;;;1.73;;
23322;SDS011;11833;52.554;13.554;2023-11-21T11:05:26;2.45;;;1.63;;
23322;SDS011;11833;52.554;13.554;2023-11-21T11:08:06;1.70;;;1.45;;
23322;SDS011;11833;52.554;13.554;2023-11-21T11:10:34;1.60;;;1.50;;
23322;SDS011;11833;52.554;13.554;2023-11-21T11:13:01;4.78;;;1.98;;
23322;SDS011;11833;52.554;13.554;2023-11-21T11:15:27;3.15;;;1.42;;
23322;SDS011;11833;52.554;13.554;2023-11-21T11:17:53;2.03;;;1.83;;
23322;SDS011;11833;52.554;13.554;2023-11-21T11:20:25;1.58;;;1.48;;
23322;SDS011;11833;52.554;13.554;2023-11-21T11:29:33;2.38;;;1.92;;
23322;SDS011;11833;52.554;13.554;2023-11-21T11:32:15;3.17;;;2.05;;
23322;SDS011;11833;52.554;13.554;2023-11-21T11:35:14;4.40;;;3.17;;
23322;SDS011;11833;52.554;13.554;2023-11-21T11:37:50;2.58;;;2.38;;
23322;SDS011;11833;52.554;13.554;2023-11-21T11:40:17;4.00;;;2.05;;
23322;SDS011;11833;52.554;13.554;2023-11-21T11:42:57;1.70;;;1.60;;
23322;SDS011;11833;52.554;13.554;2023-11-21T11:45:24;2.13;;;1.90;;
23322;SDS011;11833;52.554;13.554;2023-11-21T11:47:58;2.85;;;2.00;;
23322;SDS011;11833;52.554;13.554;2023-11-21T11:50:26;2.65;;;1.70;;
23322;SDS011;11833;52.554;13.554;2023-11-21T11:52:52;1.70;;;1.60;;
23322;SDS011;11833;52.554;13.554;2023-11-21T11:55:20;2.70;;;2.10;;
23322;SDS011;11833;52.554;13.554;2023-11-21T11:57:52;1.45;;;1.35;;
23322;SDS011;11833;52.554;13.554;2023-11-21T12:02:54;1.95;;;1.55;;
23322;SDS011;11833;52.554;13.554;2023-11-21T12:05:24;1.50;;;1.40;;
23322;SDS011;11833;52.554;13.554;2023-11-21T12:07:55;2.60;;;1.42;;
23322;SDS011;11833;52.554;13.554;2023-11-21T12:12:57;2.85;;;1.70;;
23322;SDS011;11833;52.554;13.554;2023-11-21T12:15:26;1.67;;;1.33;;
23322;SDS011;11833;52.554;13.554;2023-11-21T12:17:54;2.40;;;1.70;;
23322;SDS011;11833;52.554;13.554;2023-11-21T12:20:23;2.33;;;1.67;;
23322;SDS011;11833;52.554;13.554;2023-11-21T12:22:51;4.35;;;1.77;;
23322;SDS011;11833;52.554;13.554;2023-11-21T12:25:19;1.77;;;1.45;;
23322;SDS011;11833;52.554;13.554;2023-11-21T12:28:00;3.28;;;1.50;;
23322;SDS011;11833;52.554;13.554;2023-11-21T12:30:31;5.47;;;3.17;;
23322;SDS011;11833;52.554;13.554;2023-11-21T12:33:03;3.20;;;2.42;;
23322;SDS011;11833;52.554;13.554;2023-11-21T12:35:32;1.40;;;1.30;;
23322;SDS011;11833;52.554;13.554;2023-11-21T12:37:59;1.90;;;1.80;;
23322;SDS011;11833;52.554;13.554;2023-11-21T12:40:27;2.95;;;1.55;;
23322;SDS011;11833;52.554;13.554;2023-11-21T12:42:58;1.77;;;1.38;;
23322;SDS011;11833;52.554;13.554;2023-11-21T12:45:26;1.95;;;1.45;;
23322;SDS011;11833;52.554;13.554;2023-11-21T12:48:01;2.05;;;1.85;;
23322;SDS011;11833;52.554;13.554;2023-11-21T12:50:32;1.95;;;1.73;;
23322;SDS011;11833;52.554;13.554;2023-11-21T12:53:03;5.95;;;3.65;;
23322;SDS011;11833;52.554;13.554;2023-11-21T12:55:35;2.00;;;1.52;;
23322;SDS011;11833;52.554;13.554;2023-11-21T12:58:08;2.45;;;1.70;;
23322;SDS011;11833;52.554;13.554;2023-11-21T13:00:36;1.83;;;1.40;;
23322;SDS011;11833;52.554;13.554;2023-11-21T13:03:07;2.03;;;1.75;;
23322;SDS011;11833;52.554;13.554;2023-11-21T13:05:35;2.28;;;1.60;;
23322;SDS011;11833;52.554;13.554;2023-11-21T13:08:09;1.80;;;1.40;;
23322;SDS011;11833;52.554;13.554;2023-11-21T13:10:41;1.83;;;1.60;;
23322;SDS011;11833;52.554;13.554;2023-11-21T13:13:11;1.92;;;1.80;;
23322;SDS011;11833;52.554;13.554;2023-11-21T13:15:52;1.88;;;1.77;;
23322;SDS011;11833;52.554;13.554;2023-11-21T13:18:26;1.90;;;1.65;;
23322;SDS011;11833;52.554;13.554;2023-11-21T13:20:53;3.30;;;2.10;;
23322;SDS011;11833;52.554;13.554;2023-11-21T13:23:22;2.83;;;2.42;;
23322;SDS011;11833;52.554;13.554;2023-11-21T13:25:49;2.95;;;2.03;;
23322;SDS011;11833;52.554;13.554;2023-11-21T13:28:15;4.60;;;2.67;;
23322;SDS011;11833;52.554;13.554;2023-11-21T13:30:43;3.45;;;2.75;;
23322;SDS011;11833;52.554;13.554;2023-11-21T13:33:09;2.67;;;2.28;;
23322;SDS011;11833;52.554;13.554;2023-11-21T13:35:38;2.90;;;2.58;;
23322;SDS011;11833;52.554;13.554;2023-11-21T13:40:36;4.93;;;2.90;;
23322;SDS011;11833;52.554;13.554;2023-11-21T13:43:14;4.25;;;3.20;;
23322;SDS011;11833;52.554;13.554;2023-11-21T13:45:43;4.93;;;3.20;;
23322;SDS011;11833;52.554;13.554;2023-11-21T13:48:11;3.40;;;2.92;;
23322;SDS011;11833;52.554;13.554;2023-11-21T13:50:55;4.38;;;3.25;;
23322;SDS011;11833;52.554;13.554;2023-11-21T13:53:24;5.68;;;3.67;;
23322;SDS011;11833;52.554;13.554;2023-11-21T13:55:50;3.50;;;3.20;;
23322;SDS011;11833;52.554;13.554;2023-11-21T13:58:19;4.68;;;3.60;;
23322;SDS011;11833;52.554;13.554;2023-11-21T14:00:59;4.82;;;3.70;;
23322;SDS011;11833;52.554;13.554;2023-11-21T14:03:26;4.60;;;3.53;;
23322;SDS011;11833;52.554;13.554;2023-11-21T14:06:04;4.82;;;4.05;;
23322;SDS011;11833;52.554;13.554;2023-11-21T14:08:39;4.95;;;4.43;;
23322;SDS011;11833;52.554;13.554;2023-11-21T14:11:08;7.43;;;4.85;;
23322;SDS011;11833;52.554;13.554;2023-11-21T14:13:36;7.53;;;4.95;;
23322;SDS011;11833;52.554;13.554;2023-11-21T14:16:02;6.38;;;4.53;;
23322;SDS011;11833;52.554;13.554;2023-11-21T14:18:31;4.28;;;3.78;;
23322;SDS011;11833;52.554;13.554;2023-11-21T14:21:04;8.70;;;6.57;;
23322;SDS011;11833;52.554;13.554;2023-11-21T14:23:40;5.90;;;4.82;;
23322;SDS011;11833;52.554;13.554;2023-11-21T14:26:06;10.77;;;7.10;;
23322;SDS011;11833;52.554;13.554;2023-11-21T14:28:32;9.57;;;7.32;;
23322;SDS011;11833;52.554;13.554;2023-11-21T14:31:00;10.23;;;8.35;;
23322;SDS011;11833;52.554;13.554;2023-11-21T14:33:25;13.07;;;7.72;;
23322;SDS011;11833;52.554;13.554;2023-11-21T14:35:52;11.63;;;7.53;;
23322;SDS011;11833;52.554;13.554;2023-11-21T14:38:18;12.77;;;8.23;;
23322;SDS011;11833;52.554;13.554;2023-11-21T14:40:43;10.85;;;8.00;;
23322;SDS011;11833;52.554;13.554;2023-11-21T14:43:10;12.25;;;9.10;;
23322;SDS011;11833;52.554;13.554;2023-11-21T14:45:36;12.45;;;8.05;;
23322;SDS011;11833;52.554;13.554;2023-11-21T14:48:01;11.57;;;8.32;;
23322;SDS011;11833;52.554;13.554;2023-11-21T14:50:34;17.60;;;7.90;;
23322;SDS011;11833;52.554;13.554;2023-11-21T14:53:07;8.07;;;6.32;;
23322;SDS011;11833;52.554;13.554;2023-11-21T14:55:34;11.93;;;8.40;;
23322;SDS011;11833;52.554;13.554;2023-11-21T14:58:03;11.63;;;8.85;;
23322;SDS011;11833;52.554;13.554;2023-11-21T15:00:29;11.65;;;8.35;;
23322;SDS011;11833;52.554;13.554;2023-11-21T15:03:03;13.95;;;8.80;;
23322;SDS011;11833;52.554;13.554;2023-11-21T15:05:31;9.30;;;6.80;;
23322;SDS011;11833;52.554;13.554;2023-11-21T15:08:00;7.88;;;5.30;;
23322;SDS011;11833;52.554;13.554;2023-11-21T15:10:44;10.73;;;7.93;;
23322;SDS011;11833;52.554;13.554;2023-11-21T15:13:13;12.13;;;8.43;;
23322;SDS011;11833;52.554;13.554;2023-11-21T15:15:40;11.80;;;8.77;;
23322;SDS011;11833;52.554;13.554;2023-11-21T15:18:07;10.50;;;7.65;;
23322;SDS011;11833;52.554;13.554;2023-11-21T15:20:36;10.63;;;6.95;;
23322;SDS011;11833;52.554;13.554;2023-11-21T15:23:03;10.13;;;7.45;;
23322;SDS011;11833;52.554;13.554;2023-11-21T15:25:31;10.13;;;5.85;;
23322;SDS011;11833;52.554;13.554;2023-11-21T15:27:57;11.95;;;7.95;;
23322;SDS011;11833;52.554;13.554;2023-11-21T15:30:23;9.80;;;7.30;;
23322;SDS011;11833;52.554;13.554;2023-11-21T15:32:50;9.68;;;6.97;;
23322;SDS011;11833;52.554;13.554;2023-11-21T15:35:18;8.07;;;6.05;;
23322;SDS011;11833;52.554;13.554;2023-11-21T15:37:45;8.95;;;6.85;;
23322;SDS011;11833;52.554;13.554;2023-11-21T15:40:11;9.48;;;6.70;;
23322;SDS011;11833;52.554;13.554;2023-11-21T15:42:39;9.38;;;6.50;;
23322;SDS011;11833;52.554;13.554;2023-11-21T15:45:05;8.98;;;6.13;;
23322;SDS011;11833;52.554;13.554;2023-11-21T15:47:33;11.75;;;7.05;;
23322;SDS011;11833;52.554;13.554;2023-11-21T15:50:00;9.60;;;7.05;;
23322;SDS011;11833;52.554;13.554;2023-11-21T15:52:29;10.23;;;6.22;;
23322;SDS011;11833;52.554;13.554;2023-11-21T15:54:54;14.85;;;6.90;;
23322;SDS011;11833;52.554;13.554;2023-11-21T15:57:21;9.75;;;6.40;;